Time,TemperatureF,DewpointF,PressureIn,WindDirection,WindDirectionDegrees,WindSpeedMPH,WindSpeedGustMPH,Humidity,HourlyPrecipIn,Conditions,Clouds,dailyrainin,SoftwareType,DateUTC
2013-08-02 00:12:00,75.0,71.0,-100.00,SW,220,6.0,9.0,85,0.00,,,-99.99,,2013-08-02 05:12:00,
2013-08-02 00:32:00,75.0,71.0,-100.00,SW,225,4.0,7.0,86,0.00,,,-99.99,,2013-08-02 05:32:00,
2013-08-02 00:43:00,75.0,72.0,-100.00,SW,235,3.0,7.0,90,0.00,,,-99.99,,2013-08-02 05:43:00,
2013-08-02 00:53:00,75.0,71.0,-100.00,WSW,250,5.0,9.0,89,0.00,,,-99.99,,2013-08-02 05:53:00,
2013-08-02 01:12:00,74.0,72.0,-100.00,SW,230,5.0,8.0,91,0.00,,,-99.99,,2013-08-02 06:12:00,
2013-08-02 01:33:00,74.0,72.0,-100.00,SW,220,7.0,9.0,92,0.00,,,-99.99,,2013-08-02 06:33:00,
2013-08-02 01:43:00,73.0,72.0,-100.00,SW,225,3.0,7.0,95,0.00,,,-99.99,,2013-08-02 06:43:00,
2013-08-02 01:52:00,73.0,72.0,-100.00,SW,230,3.0,10.0,95,0.00,,,-99.99,,2013-08-02 06:52:00,
2013-08-02 02:12:00,73.0,72.0,-100.00,SW,215,7.0,10.0,95,0.00,,,-99.99,,2013-08-02 07:12:00,
2013-08-02 02:33:00,73.0,72.0,-100.00,SW,215,4.0,10.0,95,0.00,,,-99.99,,2013-08-02 07:33:00,
2013-08-02 02:44:00,72.0,70.0,-100.00,SE,140,2.0,3.0,95,0.00,,,-99.99,,2013-08-02 07:44:00,
2013-08-02 02:53:00,71.0,70.0,-100.00,SSE,155,1.0,4.0,95,0.00,,,-99.99,,2013-08-02 07:53:00,
2013-08-02 03:12:00,72.0,71.0,-100.00,SW,220,2.0,5.0,95,0.00,,,-99.99,,2013-08-02 08:12:00,
2013-08-02 03:33:00,72.0,71.0,-100.00,WNW,290,3.0,5.0,95,0.00,,,-99.99,,2013-08-02 08:33:00,
2013-08-02 03:43:00,72.0,71.0,-100.00,WNW,285,2.0,6.0,95,0.00,,,-99.99,,2013-08-02 08:43:00,
2013-08-02 03:53:00,71.0,70.0,-100.00,NW,320,1.0,4.0,95,0.00,,,-99.99,,2013-08-02 08:53:00,
2013-08-02 04:02:00,71.0,69.0,-100.00,WNW,300,1.0,4.0,95,0.00,,,-99.99,,2013-08-02 09:02:00,
2013-08-02 04:12:00,70.0,69.0,-100.00,WNW,290,3.0,6.0,95,0.00,,,-99.99,,2013-08-02 09:12:00,
2013-08-02 04:33:00,73.0,71.0,-100.00,West,265,5.0,9.0,95,0.00,,,-99.99,,2013-08-02 09:33:00,
2013-08-02 04:43:00,73.0,71.0,-100.00,West,275,4.0,8.0,95,0.00,,,-99.99,,2013-08-02 09:43:00,
2013-08-02 04:53:00,72.0,71.0,-100.00,WNW,290,7.0,11.0,95,0.00,,,-99.99,,2013-08-02 09:53:00,
2013-08-02 05:33:00,72.0,71.0,-100.00,WNW,290,7.0,9.0,95,0.00,,,-99.99,,2013-08-02 10:33:00,
2013-08-02 05:43:00,72.0,71.0,-100.00,WNW,285,7.0,11.0,95,0.00,,,-99.99,,2013-08-02 10:43:00,
2013-08-02 05:52:00,72.0,70.0,-100.00,WNW,295,5.0,10.0,95,0.00,,,-99.99,,2013-08-02 10:52:00,
2013-08-02 06:12:00,71.0,70.0,-100.00,WNW,290,7.0,11.0,95,0.00,,,-99.99,,2013-08-02 11:12:00,
2013-08-02 06:32:00,71.0,70.0,-100.00,West,280,6.0,9.0,95,0.00,,,-99.99,,2013-08-02 11:32:00,
2013-08-02 06:43:00,72.0,70.0,-100.00,West,275,6.0,12.0,95,0.00,,,-99.99,,2013-08-02 11:43:00,
2013-08-02 06:52:00,72.0,70.0,-100.00,WSW,255,4.0,9.0,95,0.00,,,-99.99,,2013-08-02 11:52:00,
2013-08-02 07:33:00,71.0,70.0,-100.00,WNW,285,7.0,11.0,95,0.00,,,-99.99,,2013-08-02 12:33:00,
2013-08-02 07:43:00,71.0,70.0,-100.00,WNW,285,5.0,9.0,95,0.00,,,-99.99,,2013-08-02 12:43:00,
2013-08-02 07:52:00,72.0,70.0,-100.00,WNW,290,7.0,9.0,95,0.00,,,-99.99,,2013-08-02 12:52:00,
2013-08-02 08:12:00,72.0,71.0,-100.00,WNW,290,3.0,6.0,95,0.00,,,-99.99,,2013-08-02 13:12:00,
2013-08-02 08:33:00,74.0,72.0,-100.00,NW,305,4.0,7.0,95,0.00,,,-99.99,,2013-08-02 13:33:00,
2013-08-02 08:43:00,75.0,74.0,-100.00,NW,310,4.0,8.0,95,0.00,,,-99.99,,2013-08-02 13:43:00,
2013-08-02 09:32:00,77.0,69.0,-100.00,NW,305,7.0,12.0,77,0.00,,,-99.99,,2013-08-02 14:32:00,
2013-08-02 09:43:00,77.0,70.0,-100.00,WNW,300,4.0,14.0,78,0.00,,,-99.99,,2013-08-02 14:43:00,
2013-08-02 09:53:00,77.0,70.0,-100.00,WNW,290,6.0,12.0,78,0.00,,,-99.99,,2013-08-02 14:53:00,
2013-08-02 10:12:00,79.0,71.0,-100.00,NW,325,2.0,7.0,78,0.00,,,-99.99,,2013-08-02 15:12:00,
2013-08-02 10:32:00,78.0,70.0,-100.00,WNW,300,7.0,9.0,77,0.00,,,-99.99,,2013-08-02 15:32:00,
2013-08-02 10:43:00,78.0,69.0,-100.00,WSW,250,3.0,8.0,74,0.00,,,-99.99,,2013-08-02 15:43:00,
2013-08-02 10:52:00,79.0,71.0,-100.00,NNW,335,1.0,6.0,75,0.00,,,-99.99,,2013-08-02 15:52:00,
2013-08-02 11:12:00,81.0,71.0,-100.00,SSW,200,4.0,7.0,72,0.00,,,-99.99,,2013-08-02 16:12:00,
2013-08-02 11:22:00,79.0,69.0,-100.00,NW,305,3.0,6.0,73,0.00,,,-99.99,,2013-08-02 16:22:00,
2013-08-02 11:32:00,79.0,69.0,-100.00,NW,305,3.0,6.0,73,0.00,,,-99.99,,2013-08-02 16:32:00,
2013-08-02 11:43:00,80.0,72.0,-100.00,WSW,240,3.0,8.0,76,0.00,,,-99.99,,2013-08-02 16:43:00,
2013-08-02 12:02:00,81.0,71.0,-100.00,South,180,4.0,10.0,72,0.00,,,-99.99,,2013-08-02 17:02:00,
2013-08-02 12:12:00,83.0,72.0,-100.00,SSE,165,4.0,8.0,68,0.00,,,-99.99,,2013-08-02 17:12:00,
2013-08-02 12:22:00,83.0,72.0,-100.00,South,175,6.0,10.0,69,0.00,,,-99.99,,2013-08-02 17:22:00,
2013-08-02 12:35:00,83.0,72.0,-100.00,South,175,6.0,10.0,69,0.00,,,-99.99,,2013-08-02 17:35:00,
2013-08-02 12:52:00,83.0,72.0,-100.00,SW,235,6.0,9.0,70,0.00,,,-99.99,,2013-08-02 17:52:00,
2013-08-02 13:32:00,81.0,72.0,-100.00,WSW,250,3.0,7.0,73,0.00,,,-99.99,,2013-08-02 18:32:00,
2013-08-02 14:22:00,82.0,73.0,-100.00,West,270,4.0,7.0,73,0.00,,,-99.99,,2013-08-02 19:22:00,
2013-08-02 14:32:00,82.0,73.0,-100.00,West,270,4.0,7.0,73,0.00,,,-99.99,,2013-08-02 19:32:00,
2013-08-02 15:32:00,84.0,73.0,-100.00,ENE,65,6.0,10.0,70,0.00,,,-99.99,,2013-08-02 20:32:00,
2013-08-02 15:43:00,85.0,73.0,-100.00,NW,325,3.0,7.0,68,0.00,,,-99.99,,2013-08-02 20:43:00,
2013-08-02 16:43:00,85.0,73.0,-100.00,North,5,3.0,6.0,67,0.00,,,-99.99,,2013-08-02 21:43:00,
2013-08-02 16:52:00,85.0,74.0,-100.00,North,0,4.0,9.0,69,0.00,,,-99.99,,2013-08-02 21:52:00,
2013-08-02 17:32:00,84.0,74.0,-100.00,NE,35,9.0,12.0,71,0.00,,,-99.99,,2013-08-02 22:32:00,
2013-08-02 18:32:00,82.0,74.0,-100.00,NNE,15,10.0,14.0,77,0.00,,,-99.99,,2013-08-02 23:32:00,
2013-08-02 18:43:00,81.0,73.0,-100.00,NE,35,9.0,12.0,77,0.00,,,-99.99,,2013-08-02 23:43:00,
2013-08-02 19:12:00,77.0,68.0,-100.00,NE,35,11.0,17.0,72,0.00,,,-99.99,,2013-08-03 00:12:00,
2013-08-02 19:33:00,77.0,68.0,-100.00,NE,35,10.0,20.0,73,0.00,,,-99.99,,2013-08-03 00:33:00,
2013-08-02 19:43:00,76.0,67.0,-100.00,NNE,30,7.0,15.0,74,0.00,,,-99.99,,2013-08-03 00:43:00,
2013-08-02 19:52:00,75.0,67.0,-100.00,NE,40,6.0,11.0,76,0.00,,,-99.99,,2013-08-03 00:52:00,
2013-08-02 20:12:00,74.0,68.0,-100.00,NNE,30,6.0,12.0,81,0.00,,,-99.99,,2013-08-03 01:12:00,
2013-08-02 20:32:00,73.0,68.0,-100.00,NE,45,7.0,13.0,82,0.00,,,-99.99,,2013-08-03 01:32:00,
2013-08-02 20:42:00,71.0,67.0,-100.00,NE,35,9.0,18.0,86,0.00,,,-99.99,,2013-08-03 01:42:00,
2013-08-02 21:32:00,70.0,66.0,-100.00,NE,55,4.0,6.0,86,0.00,,,-99.99,,2013-08-03 02:32:00,
2013-08-02 21:43:00,70.0,66.0,-100.00,NNE,15,6.0,7.0,86,0.00,,,-99.99,,2013-08-03 02:43:00,
2013-08-02 21:52:00,70.0,66.0,-100.00,NE,50,6.0,9.0,87,0.00,,,-99.99,,2013-08-03 02:52:00,
2013-08-02 22:32:00,69.0,66.0,-100.00,NE,40,6.0,9.0,89,0.00,,,-99.99,,2013-08-03 03:32:00,
2013-08-02 22:43:00,69.0,66.0,-100.00,NE,40,6.0,9.0,92,0.00,,,-99.99,,2013-08-03 03:43:00,
2013-08-02 22:53:00,69.0,67.0,-100.00,NE,45,4.0,7.0,93,0.00,,,-99.99,,2013-08-03 03:53:00,
2013-08-02 23:12:00,69.0,67.0,-100.00,ENE,60,2.0,4.0,93,0.00,,,-99.99,,2013-08-03 04:12:00,
2013-08-02 23:32:00,68.0,67.0,-100.00,NE,35,4.0,5.0,94,0.00,,,-99.99,,2013-08-03 04:32:00,
2013-08-02 23:43:00,68.0,67.0,-100.00,NE,35,3.0,4.0,95,0.00,,,-99.99,,2013-08-03 04:43:00,
2013-08-02 23:53:00,68.0,67.0,-100.00,NE,35,2.0,4.0,95,0.00,,,-99.99,,2013-08-03 04:53:00,